createdAt,value
2023-02-05T00:02:23.701Z,21.50
2023-02-05T00:04:54.260Z,21.37
2023-02-05T00:07:36.473Z,20.83
2023-02-05T00:10:12.338Z,22.57
2023-02-05T00:12:47.457Z,22.57
2023-02-05T00:15:16.135Z,23.07
2023-02-05T00:17:51.397Z,23.87
2023-02-05T00:20:22.235Z,24.20
2023-02-05T00:22:57.702Z,26.00
2023-02-05T00:25:26.491Z,24.87
2023-02-05T00:28:01.570Z,26.47
2023-02-05T00:30:30.269Z,25.53
2023-02-05T00:33:05.471Z,26.07
2023-02-05T00:35:35.728Z,25.27
2023-02-05T00:38:11.511Z,25.63
2023-02-05T00:40:40.429Z,25.90
2023-02-05T00:43:15.483Z,25.90
2023-02-05T00:45:44.228Z,28.20
2023-02-05T00:48:19.519Z,26.27
2023-02-05T00:50:51.871Z,28.03
2023-02-05T00:53:28.500Z,27.17
2023-02-05T00:55:57.444Z,27.17
2023-02-05T00:58:32.479Z,27.03
2023-02-05T01:01:00.967Z,27.03
2023-02-05T01:03:36.745Z,25.03
2023-02-05T01:06:27.478Z,25.50
2023-02-05T01:09:02.538Z,23.33
2023-02-05T01:11:30.823Z,23.10
2023-02-05T01:14:05.442Z,26.17
2023-02-05T01:16:33.924Z,23.33
2023-02-05T01:19:08.583Z,23.40
2023-02-05T01:21:38.838Z,24.23
2023-02-05T01:24:14.533Z,25.33
2023-02-05T01:26:43.407Z,23.93
2023-02-05T01:29:18.474Z,24.97
2023-02-05T01:31:47.007Z,25.10
2023-02-05T01:34:22.494Z,24.57
2023-02-05T01:36:58.517Z,22.53
2023-02-05T01:39:27.125Z,24.43
2023-02-05T01:42:02.547Z,25.37
2023-02-05T01:44:32.766Z,25.03
2023-02-05T01:47:07.550Z,23.20
2023-02-05T01:49:41.673Z,25.73
2023-02-05T01:52:21.503Z,24.20
2023-02-05T01:54:53.283Z,23.90
2023-02-05T01:57:31.813Z,26.57
2023-02-05T02:00:00.965Z,25.70
2023-02-05T02:02:44.821Z,27.07
2023-02-05T02:05:18.043Z,27.97
2023-02-05T02:07:54.464Z,26.07
2023-02-05T02:10:23.357Z,28.00
2023-02-05T02:13:00.557Z,27.53
2023-02-05T02:15:30.042Z,27.17
2023-02-05T02:18:26.856Z,26.90
2023-02-05T02:21:16.087Z,28.67
2023-02-05T02:24:06.981Z,27.00
2023-02-05T02:26:53.239Z,27.60
2023-02-05T02:29:38.579Z,26.60
2023-02-05T02:32:15.629Z,28.07
2023-02-05T02:34:56.518Z,27.93
2023-02-05T02:37:34.766Z,27.07
2023-02-05T02:40:17.537Z,26.20
2023-02-05T02:42:50.785Z,25.03
2023-02-05T02:45:31.711Z,26.13
2023-02-05T02:48:02.659Z,25.40
2023-02-05T02:50:41.542Z,26.63
2023-02-05T02:53:14.049Z,26.53
2023-02-05T02:55:50.872Z,24.77
2023-02-05T02:58:24.706Z,25.90
2023-02-05T03:01:02.930Z,23.43
2023-02-05T03:03:41.163Z,24.17
2023-02-05T03:06:19.686Z,24.97
2023-02-05T03:08:54.250Z,23.00
2023-02-05T03:11:29.903Z,23.47
2023-02-05T03:13:59.655Z,24.33
2023-02-05T03:16:36.673Z,23.17
2023-02-05T03:19:07.929Z,24.00
2023-02-05T03:21:48.636Z,22.10
2023-02-05T03:24:18.646Z,22.43
2023-02-05T03:26:53.665Z,21.80
2023-02-05T03:29:27.538Z,22.10
2023-02-05T03:32:12.895Z,20.43
2023-02-05T03:34:51.957Z,18.97
2023-02-05T03:37:33.690Z,17.63
2023-02-05T03:40:13.707Z,15.97
2023-02-05T03:42:59.915Z,16.20
2023-02-05T03:45:38.219Z,15.40
2023-02-05T03:48:36.761Z,14.13
2023-02-05T03:51:33.352Z,15.10
2023-02-05T03:54:16.930Z,13.07
2023-02-05T03:56:55.470Z,14.33
2023-02-05T03:59:32.611Z,14.57
2023-02-05T04:02:23.625Z,14.10
2023-02-05T04:04:59.643Z,12.93
2023-02-05T04:07:28.395Z,12.60
2023-02-05T04:10:04.029Z,13.27
2023-02-05T04:12:32.598Z,11.60
2023-02-05T04:15:07.772Z,11.90
2023-02-05T04:17:36.740Z,12.27
2023-02-05T04:20:15.040Z,11.50
2023-02-05T04:22:43.894Z,11.43
2023-02-05T04:25:18.946Z,11.60
2023-02-05T04:27:47.932Z,10.23
2023-02-05T04:30:22.952Z,10.77
2023-02-05T04:32:52.049Z,10.60
2023-02-05T04:35:28.664Z,10.87
2023-02-05T04:37:57.132Z,10.80
2023-02-05T04:40:31.663Z,10.17
2023-02-05T04:43:01.012Z,10.80
2023-02-05T04:45:38.014Z,10.40
2023-02-05T04:48:06.920Z,10.87
2023-02-05T04:50:43.991Z,10.13
2023-02-05T04:53:13.588Z,10.27
2023-02-05T04:55:48.963Z,10.47
2023-02-05T04:58:17.614Z,9.90
2023-02-05T05:00:52.763Z,10.10
2023-02-05T05:03:28.358Z,10.60
2023-02-05T05:06:04.765Z,9.90
2023-02-05T05:08:33.458Z,9.97
2023-02-05T05:11:12.760Z,9.60
2023-02-05T05:13:42.097Z,9.17
2023-02-05T05:16:18.706Z,9.70
2023-02-05T05:18:47.373Z,9.53
2023-02-05T05:21:24.096Z,9.60
2023-02-05T05:23:52.704Z,9.27
2023-02-05T05:26:29.774Z,9.20
2023-02-05T05:28:59.556Z,8.80
2023-02-05T05:31:34.655Z,8.27
2023-02-05T05:34:03.344Z,8.67
2023-02-05T05:36:40.031Z,8.60
2023-02-05T05:39:32.038Z,8.30
2023-02-05T05:42:17.413Z,9.93
2023-02-05T05:44:56.721Z,9.53
2023-02-05T05:47:25.891Z,9.67
2023-02-05T05:50:00.751Z,10.43
2023-02-05T05:52:32.458Z,11.00
2023-02-05T05:55:08.768Z,11.27
2023-02-05T05:57:37.225Z,10.93
2023-02-05T06:00:13.784Z,11.23
2023-02-05T06:02:49.573Z,12.03
2023-02-05T06:05:32.095Z,11.53
2023-02-05T06:08:02.202Z,12.40
2023-02-05T06:10:36.761Z,12.53
2023-02-05T06:13:05.440Z,13.23
2023-02-05T06:15:41.036Z,14.73
2023-02-05T06:18:09.664Z,15.00
2023-02-05T06:20:45.103Z,14.93
2023-02-05T06:23:15.667Z,15.27
2023-02-05T06:25:50.820Z,15.10
2023-02-05T06:28:19.623Z,15.03
2023-02-05T06:30:54.959Z,16.37
2023-02-05T06:33:23.564Z,16.30
2023-02-05T06:35:58.820Z,14.17
2023-02-05T06:38:28.992Z,14.87
2023-02-05T06:41:04.129Z,15.00
2023-02-05T06:43:32.675Z,15.30
2023-02-05T06:46:08.072Z,14.10
2023-02-05T06:48:37.184Z,14.83
2023-02-05T06:51:12.772Z,12.23
2023-02-05T06:53:43.738Z,12.43
2023-02-05T06:56:18.852Z,9.00
2023-02-05T06:58:47.760Z,11.00
2023-02-05T07:01:22.916Z,5.17
2023-02-05T07:03:58.536Z,9.43
2023-02-05T07:06:40.788Z,11.10
2023-02-05T07:09:11.786Z,10.30
2023-02-05T07:11:47.141Z,8.53
2023-02-05T07:14:16.170Z,9.37
2023-02-05T07:16:52.094Z,9.20
2023-02-05T07:19:20.682Z,8.97
2023-02-05T07:21:56.103Z,6.17
2023-02-05T07:24:26.467Z,5.90
2023-02-05T07:27:01.852Z,6.40
2023-02-05T07:29:31.361Z,2.60
2023-02-05T07:32:07.205Z,3.17
2023-02-05T07:34:36.284Z,4.30
2023-02-05T07:37:12.217Z,3.27
2023-02-05T07:39:42.829Z,2.60
2023-02-05T07:42:19.138Z,2.00
2023-02-05T07:44:48.759Z,1.80
2023-02-05T07:47:23.865Z,1.30
2023-02-05T07:49:52.674Z,1.67
2023-02-05T07:52:28.129Z,1.53
2023-02-05T07:54:58.053Z,1.60
2023-02-05T07:57:33.841Z,1.53
2023-02-05T08:00:02.892Z,1.80
2023-02-05T08:02:38.148Z,1.37
2023-02-05T08:05:14.553Z,1.50
2023-02-05T08:07:49.825Z,1.33
2023-02-05T08:10:20.066Z,1.70
2023-02-05T08:12:56.121Z,1.60
2023-02-05T08:15:24.840Z,1.70
2023-02-05T08:17:59.885Z,1.43
2023-02-05T08:20:28.839Z,1.90
2023-02-05T08:23:03.852Z,1.80
2023-02-05T08:25:34.317Z,1.83
2023-02-05T08:28:09.985Z,1.87
2023-02-05T08:30:38.562Z,1.87
2023-02-05T08:33:13.869Z,1.80
2023-02-05T08:35:42.445Z,1.70
2023-02-05T08:38:18.109Z,1.80
2023-02-05T08:40:48.176Z,1.97
2023-02-05T08:43:22.930Z,1.83
2023-02-05T08:45:51.801Z,1.70
2023-02-05T08:48:26.911Z,1.83
2023-02-05T08:50:55.665Z,2.70
2023-02-05T08:53:31.148Z,1.90
2023-02-05T08:56:03.069Z,1.90
2023-02-05T08:58:37.896Z,2.00
2023-02-05T09:01:07.914Z,2.00
2023-02-05T09:03:43.015Z,1.83
2023-02-05T09:06:14.933Z,2.23
2023-02-05T09:08:50.952Z,1.57
2023-02-05T09:11:26.854Z,2.53
2023-02-05T09:14:01.964Z,2.37
2023-02-05T09:16:30.654Z,2.43
2023-02-05T09:19:06.900Z,1.80
2023-02-05T09:21:35.523Z,2.40
2023-02-05T09:24:11.208Z,2.80
2023-02-05T09:26:42.494Z,3.03
2023-02-05T09:29:18.262Z,2.20
2023-02-05T09:31:47.202Z,2.23
2023-02-05T09:34:23.916Z,2.70
2023-02-05T09:36:52.477Z,2.10
2023-02-05T09:40:12.037Z,1.87
2023-02-05T09:42:36.269Z,2.27
2023-02-05T09:45:24.240Z,2.17
2023-02-05T09:48:10.908Z,3.27
2023-02-05T09:50:41.518Z,2.30
2023-02-05T09:53:23.936Z,2.70
2023-02-05T09:55:52.974Z,3.00
2023-02-05T09:58:35.032Z,3.33
2023-02-05T10:01:06.222Z,2.90
2023-02-05T10:03:54.177Z,3.20
2023-02-05T10:06:43.175Z,3.27
2023-02-05T10:09:30.994Z,3.23
2023-02-05T10:12:06.917Z,3.07
2023-02-05T10:14:54.968Z,2.87
2023-02-05T10:17:36.281Z,2.73
2023-02-05T10:20:29.313Z,3.37
2023-02-05T10:23:12.734Z,2.17
2023-02-05T10:25:57.022Z,3.40
2023-02-05T10:28:53.853Z,2.50
2023-02-05T10:31:49.096Z,3.50
2023-02-05T10:34:21.143Z,2.70
2023-02-05T10:37:01.232Z,2.30
2023-02-05T10:39:32.491Z,3.07
2023-02-05T10:42:15.266Z,2.00
2023-02-05T10:44:47.921Z,3.27
2023-02-05T10:47:31.045Z,3.47
2023-02-05T10:50:05.783Z,3.90
2023-02-05T10:52:42.072Z,2.30
2023-02-05T10:55:13.588Z,3.47
2023-02-05T10:57:49.016Z,3.30
2023-02-05T11:00:21.269Z,3.23
2023-02-05T11:03:01.043Z,3.37
2023-02-05T11:05:40.227Z,2.80
2023-02-05T11:08:40.225Z,3.60
2023-02-05T11:11:20.852Z,3.40
2023-02-05T11:14:00.021Z,4.13
2023-02-05T11:16:40.433Z,4.50
2023-02-05T11:19:26.109Z,2.83
2023-02-05T11:22:00.149Z,3.50
2023-02-05T11:24:41.296Z,3.63
2023-02-05T11:27:28.167Z,4.10
2023-02-05T11:30:04.124Z,3.73
2023-02-05T11:32:36.499Z,4.23
2023-02-05T11:35:27.022Z,3.87
2023-02-05T11:38:01.899Z,3.80
2023-02-05T11:40:40.370Z,3.37
2023-02-05T11:43:18.280Z,3.57
2023-02-05T11:45:59.306Z,3.83
2023-02-05T11:48:39.106Z,2.53
2023-02-05T11:51:19.300Z,4.10
2023-02-05T11:53:54.270Z,4.33
2023-02-05T11:56:32.399Z,2.43
2023-02-05T11:59:02.355Z,4.40
2023-02-05T12:01:41.151Z,4.37
2023-02-05T12:04:26.061Z,3.57
2023-02-05T12:07:09.318Z,4.23
2023-02-05T12:09:38.486Z,4.37
2023-02-05T12:12:28.076Z,3.90
2023-02-05T12:15:05.424Z,3.87
2023-02-05T12:17:58.000Z,3.90
2023-02-05T12:21:05.212Z,3.27
2023-02-05T12:24:03.467Z,3.20
2023-02-05T12:26:42.100Z,4.17
2023-02-05T12:29:27.997Z,4.40
2023-02-05T12:32:13.134Z,3.10
2023-02-05T12:34:54.673Z,4.57
2023-02-05T12:37:41.112Z,4.23
2023-02-05T12:40:27.034Z,3.67
2023-02-05T12:43:10.121Z,4.80
2023-02-05T12:45:49.064Z,4.13
2023-02-05T12:48:41.390Z,4.20
2023-02-05T12:51:38.800Z,3.50
2023-02-05T12:54:30.178Z,3.90
2023-02-05T12:57:05.200Z,4.13
2023-02-05T12:59:48.501Z,3.37
2023-02-05T13:02:24.572Z,2.67
2023-02-05T13:05:25.012Z,4.43
2023-02-05T13:08:00.990Z,3.53
2023-02-05T13:10:42.389Z,3.57
2023-02-05T13:13:19.811Z,3.53
2023-02-05T13:16:00.124Z,3.40
2023-02-05T13:18:32.474Z,3.50
2023-02-05T13:21:31.476Z,4.10
2023-02-05T13:24:40.222Z,3.53
2023-02-05T13:27:44.225Z,3.60
2023-02-05T13:30:18.265Z,2.97
2023-02-05T13:32:58.200Z,3.30
2023-02-05T13:35:30.048Z,3.60
2023-02-05T13:38:33.201Z,2.50
2023-02-05T13:41:46.433Z,2.70
2023-02-05T13:44:45.439Z,2.47
2023-02-05T13:47:35.206Z,3.03
2023-02-05T13:50:30.137Z,3.37
2023-02-05T13:53:16.076Z,3.17
2023-02-05T13:56:04.857Z,2.83
2023-02-05T13:58:37.983Z,2.90
2023-02-05T14:01:22.294Z,3.00
2023-02-05T14:04:06.685Z,3.17
2023-02-05T14:06:45.168Z,3.60
2023-02-05T14:09:24.904Z,3.10
2023-02-05T14:12:03.177Z,3.47
2023-02-05T14:14:35.078Z,3.77
2023-02-05T14:17:31.241Z,3.50
2023-02-05T14:20:06.209Z,2.97
2023-02-05T14:22:49.213Z,2.90
2023-02-05T14:26:11.551Z,3.07
2023-02-05T14:29:00.215Z,4.17
2023-02-05T14:31:56.097Z,3.07
2023-02-05T14:34:55.223Z,3.23
2023-02-05T14:37:39.982Z,2.70
2023-02-05T14:40:35.591Z,2.80
2023-02-05T14:43:15.866Z,2.97
2023-02-05T14:45:53.556Z,3.13
2023-02-05T14:48:30.866Z,2.80
2023-02-05T14:51:12.177Z,2.80
2023-02-05T14:53:54.115Z,2.57
2023-02-05T14:56:38.499Z,3.00
2023-02-05T14:59:21.633Z,2.60
2023-02-05T15:01:59.231Z,2.87
2023-02-05T15:04:58.499Z,2.70
2023-02-05T15:07:37.534Z,3.07
2023-02-05T15:10:14.593Z,2.93
2023-02-05T15:13:11.545Z,3.47
2023-02-05T15:15:40.553Z,2.03
2023-02-05T15:18:30.188Z,1.93
2023-02-05T15:20:59.899Z,4.13
2023-02-05T15:23:43.556Z,3.10
2023-02-05T15:26:24.959Z,3.27
2023-02-05T15:29:08.217Z,3.60
2023-02-05T15:31:43.307Z,3.63
2023-02-05T15:34:54.532Z,3.37
2023-02-05T15:37:27.210Z,3.30
2023-02-05T15:40:04.573Z,3.17
2023-02-05T15:42:38.926Z,3.37
2023-02-05T15:45:31.531Z,3.17
2023-02-05T15:48:02.157Z,2.30
2023-02-05T15:50:38.310Z,3.47
2023-02-05T15:53:11.434Z,2.90
2023-02-05T15:55:48.565Z,3.33
2023-02-05T15:58:22.585Z,4.40
2023-02-05T16:00:59.242Z,3.00
2023-02-05T16:03:49.353Z,3.17
2023-02-05T16:06:28.566Z,3.37
2023-02-05T16:08:58.613Z,3.73
2023-02-05T16:11:38.653Z,3.73
2023-02-05T16:14:15.203Z,3.33
2023-02-05T16:17:02.609Z,3.70
2023-02-05T16:19:35.512Z,3.13
2023-02-05T16:22:21.354Z,3.30
2023-02-05T16:24:54.139Z,3.97
2023-02-05T16:27:35.323Z,3.50
2023-02-05T16:30:13.388Z,3.70
2023-02-05T16:32:51.272Z,3.73
2023-02-05T16:35:26.360Z,4.23
2023-02-05T16:38:02.595Z,3.30
2023-02-05T16:40:36.217Z,4.53
2023-02-05T16:43:28.293Z,5.73
2023-02-05T16:46:42.301Z,5.17
2023-02-05T16:49:42.070Z,6.47
2023-02-05T16:52:37.578Z,4.23
2023-02-05T16:55:33.618Z,7.27
2023-02-05T16:58:13.610Z,5.80
2023-02-05T17:00:42.518Z,4.47
2023-02-05T17:03:27.311Z,4.63
2023-02-05T17:06:06.166Z,5.20
2023-02-05T17:08:43.359Z,5.20
2023-02-05T17:11:36.505Z,5.83
2023-02-05T17:14:34.297Z,4.53
2023-02-05T17:17:04.422Z,5.93
2023-02-05T17:19:40.673Z,4.73
2023-02-05T17:22:21.884Z,5.77
2023-02-05T17:24:58.694Z,5.80
2023-02-05T17:27:31.171Z,6.23
2023-02-05T17:30:07.413Z,4.03
2023-02-05T17:32:35.984Z,3.57
2023-02-05T17:35:21.642Z,6.00
2023-02-05T17:37:51.587Z,4.97
2023-02-05T17:40:27.351Z,5.80
2023-02-05T17:42:56.102Z,4.93
2023-02-05T17:45:33.678Z,4.73
2023-02-05T17:48:02.397Z,4.10
2023-02-05T17:50:38.719Z,10.60
2023-02-05T17:53:11.627Z,4.23
2023-02-05T17:55:48.332Z,6.30
2023-02-05T17:58:17.711Z,6.00
2023-02-05T18:00:52.742Z,5.30
2023-02-05T18:03:25.817Z,5.50
2023-02-05T18:06:09.970Z,5.60
2023-02-05T18:08:41.071Z,5.50
2023-02-05T18:11:17.386Z,4.43
2023-02-05T18:13:46.077Z,6.23
2023-02-05T18:16:21.422Z,5.83
2023-02-05T18:18:52.989Z,6.23
2023-02-05T18:21:28.418Z,6.27
2023-02-05T18:24:01.756Z,5.47
2023-02-05T18:26:37.459Z,5.60
2023-02-05T18:29:05.975Z,4.93
2023-02-05T18:31:41.695Z,6.63
2023-02-05T18:34:10.521Z,5.57
2023-02-05T18:36:45.420Z,5.97
2023-02-05T18:39:15.402Z,6.07
2023-02-05T18:41:50.374Z,5.40
2023-02-05T18:44:25.430Z,5.33
2023-02-05T18:46:54.171Z,6.07
2023-02-05T18:49:29.748Z,5.37
2023-02-05T18:51:58.503Z,5.90
2023-02-05T18:54:35.496Z,6.40
2023-02-05T18:57:04.054Z,6.40
2023-02-05T18:59:40.367Z,5.40
2023-02-05T19:02:09.054Z,5.17
2023-02-05T19:04:51.391Z,6.17
2023-02-05T19:07:26.374Z,5.80
2023-02-05T19:10:04.404Z,5.23
2023-02-05T19:12:33.351Z,5.47
2023-02-05T19:15:08.476Z,6.40
2023-02-05T19:17:37.060Z,6.53
2023-02-05T19:20:13.446Z,6.67
2023-02-05T19:22:41.919Z,6.63
2023-02-05T19:25:19.472Z,5.90
2023-02-05T19:27:47.949Z,6.00
2023-02-05T19:30:23.449Z,6.30
2023-02-05T19:32:52.318Z,5.90
2023-02-05T19:35:27.726Z,6.50
2023-02-05T19:37:56.609Z,7.10
2023-02-05T19:40:33.887Z,6.00
2023-02-05T19:43:02.821Z,6.23
2023-02-05T19:45:37.459Z,7.33
2023-02-05T19:48:07.077Z,6.20
2023-02-05T19:50:42.567Z,6.13
2023-02-05T19:53:11.170Z,6.63
2023-02-05T19:55:47.606Z,7.10
2023-02-05T19:58:16.190Z,6.27
2023-02-05T20:00:51.485Z,7.43
2023-02-05T20:03:20.097Z,7.17
2023-02-05T20:06:02.498Z,6.73
2023-02-05T20:08:31.058Z,5.73
2023-02-05T20:11:08.486Z,5.70
2023-02-05T20:13:38.546Z,7.23
2023-02-05T20:16:19.913Z,6.90
2023-02-05T20:18:49.476Z,6.80
2023-02-05T20:21:26.540Z,7.57
2023-02-05T20:23:56.437Z,7.00
2023-02-05T20:26:33.558Z,7.07
2023-02-05T20:29:19.315Z,7.43
2023-02-05T20:31:56.474Z,6.13
2023-02-05T20:34:27.016Z,6.27
2023-02-05T20:37:03.490Z,6.07
2023-02-05T20:39:34.848Z,6.80
2023-02-05T20:42:11.878Z,7.57
2023-02-05T20:44:41.531Z,6.60
2023-02-05T20:47:19.820Z,6.50
2023-02-05T20:49:48.534Z,6.67
2023-02-05T20:52:23.877Z,7.50
2023-02-05T20:54:54.801Z,7.07
2023-02-05T20:57:31.814Z,6.57
2023-02-05T21:00:00.252Z,7.43
2023-02-05T21:02:35.726Z,7.10
2023-02-05T21:05:10.803Z,6.33
2023-02-05T21:07:52.804Z,6.70
2023-02-05T21:10:22.617Z,6.47
2023-02-05T21:12:59.504Z,6.60
2023-02-05T21:15:29.007Z,6.40
2023-02-05T21:18:04.805Z,5.97
2023-02-05T21:20:33.743Z,5.80
2023-02-05T21:23:08.599Z,5.83
2023-02-05T21:25:37.843Z,5.90
2023-02-05T21:28:14.584Z,6.37
2023-02-05T21:30:43.310Z,6.20
2023-02-05T21:33:18.585Z,6.33
2023-02-05T21:35:47.135Z,7.27
2023-02-05T21:38:22.609Z,6.33
2023-02-05T21:40:52.143Z,6.33
2023-02-05T21:43:28.885Z,6.63
2023-02-05T21:46:02.067Z,6.40
2023-02-05T21:48:37.691Z,6.37
2023-02-05T21:51:11.012Z,7.03
2023-02-05T21:53:46.541Z,5.83
2023-02-05T21:56:16.977Z,5.90
2023-02-05T21:58:53.838Z,7.00
2023-02-05T22:01:24.038Z,6.10
2023-02-05T22:04:01.644Z,5.87
2023-02-05T22:06:38.921Z,6.17
2023-02-05T22:09:16.764Z,4.80
2023-02-05T22:11:45.997Z,6.37
2023-02-05T22:14:22.541Z,5.90
2023-02-05T22:16:50.728Z,5.13
2023-02-05T22:19:25.867Z,6.63
2023-02-05T22:21:54.640Z,6.10
2023-02-05T22:24:30.954Z,6.30
2023-02-05T22:26:59.981Z,5.77
2023-02-05T22:29:36.609Z,5.87
2023-02-05T22:32:05.621Z,6.63
2023-02-05T22:34:42.613Z,6.57
2023-02-05T22:37:12.313Z,7.20
2023-02-05T22:39:49.899Z,6.43
2023-02-05T22:42:19.134Z,6.50
2023-02-05T22:44:55.933Z,7.07
2023-02-05T22:47:24.415Z,6.47
2023-02-05T22:49:59.607Z,6.93
2023-02-05T22:52:28.439Z,6.60
2023-02-05T22:55:03.617Z,7.53
2023-02-05T22:57:34.013Z,7.60
2023-02-05T23:00:10.933Z,6.30
2023-02-05T23:02:39.650Z,6.60
2023-02-05T23:05:14.969Z,6.57
2023-02-05T23:07:43.300Z,6.27
2023-02-05T23:10:18.964Z,6.47
2023-02-05T23:12:48.004Z,6.03
2023-02-05T23:15:25.646Z,6.13
2023-02-05T23:17:54.133Z,6.37
2023-02-05T23:20:29.636Z,6.77
2023-02-05T23:22:58.272Z,5.97
2023-02-05T23:25:34.363Z,6.50
2023-02-05T23:28:05.744Z,6.73
2023-02-05T23:30:42.825Z,6.60
2023-02-05T23:33:11.624Z,6.37
2023-02-05T23:35:47.652Z,6.73
2023-02-05T23:38:16.243Z,5.90
2023-02-05T23:40:51.986Z,6.80
2023-02-05T23:43:20.544Z,5.53
2023-02-05T23:45:56.719Z,6.87
2023-02-05T23:48:25.915Z,6.27
2023-02-05T23:51:03.942Z,6.93
2023-02-05T23:53:32.422Z,6.20
2023-02-05T23:56:08.662Z,6.83
2023-02-05T23:58:37.441Z,6.60
